Time;durP1;ratioP1;P1;durP2;ratioP2;P2;SDS_P1;SDS_P2;PMS_P1;PMS_P2;Temp;Humidity;BMP_temperature;BMP_pressure;BME280_temperature;BME280_humidity;BME280_pressure;Samples;Min_cycle;Max_cycle;Signal;HPM_P1;HPM_P2
2023/07/09 00:01:49;;;;;;;8.50;4.10;;;;;;;;;;5083887;28;20029;-45
2023/07/09 00:04:19;;;;;;;10.75;5.32;;;;;;;;;;5082261;28;20041;-49
2023/07/09 00:06:46;;;;;;;8.15;4.28;;;;;;;;;;5083506;28;20316;-48
2023/07/09 00:09:15;;;;;;;9.48;3.88;;;;;;;;;;5065715;28;20244;-48
2023/07/09 00:11:43;;;;;;;6.68;3.00;;;;;;;;;;5084079;28;20075;-47
2023/07/09 00:14:11;;;;;;;7.28;3.20;;;;;;;;;;5083794;28;20062;-46
2023/07/09 00:16:39;;;;;;;6.75;2.88;;;;;;;;;;5088358;28;20047;-48
2023/07/09 00:19:06;;;;;;;11.40;4.00;;;;;;;;;;5094724;28;20093;-45
2023/07/09 00:21:34;;;;;;;10.32;3.47;;;;;;;;;;5104378;28;20078;-48
2023/07/09 00:24:04;;;;;;;10.13;3.78;;;;;;;;;;5103826;28;20277;-52
2023/07/09 00:26:37;;;;;;;6.35;3.53;;;;;;;;;;5085539;28;20055;-47
2023/07/09 00:29:03;;;;;;;6.97;3.38;;;;;;;;;;5103865;28;20058;-44
2023/07/09 00:31:30;;;;;;;7.78;3.85;;;;;;;;;;5104168;28;20051;-46
2023/07/09 00:33:59;;;;;;;9.43;4.30;;;;;;;;;;5103870;28;20036;-48
2023/07/09 00:36:34;;;;;;;10.68;4.85;;;;;;;;;;5104351;28;20042;-45
2023/07/09 00:39:05;;;;;;;12.10;6.03;;;;;;;;;;5093845;28;20217;-49
2023/07/09 00:41:38;;;;;;;13.85;8.77;;;;;;;;;;5093919;28;20095;-48
2023/07/09 00:44:36;;;;;;;12.95;9.20;;;;;;;;;;5103656;28;20035;-46
2023/07/09 00:47:03;;;;;;;12.15;7.88;;;;;;;;;;5088159;28;20036;-47
2023/07/09 00:49:33;;;;;;;11.63;7.18;;;;;;;;;;5103528;28;20046;-44
2023/07/09 00:52:04;;;;;;;12.48;6.80;;;;;;;;;;5103970;28;20052;-45
2023/07/09 00:54:37;;;;;;;11.77;5.95;;;;;;;;;;5103266;28;20027;-46
2023/07/09 00:57:08;;;;;;;10.00;5.38;;;;;;;;;;5103577;28;20334;-55
2023/07/09 00:59:34;;;;;;;8.60;5.10;;;;;;;;;;5103730;28;20055;-48
2023/07/09 01:02:01;;;;;;;7.57;4.60;;;;;;;;;;5103307;28;20031;-49
2023/07/09 01:04:28;;;;;;;9.40;4.80;;;;;;;;;;5085307;28;20020;-51
2023/07/09 01:06:57;;;;;;;9.05;5.25;;;;;;;;;;5103485;28;20039;-50
2023/07/09 01:09:24;;;;;;;11.45;5.03;;;;;;;;;;5103153;28;20028;-49
2023/07/09 01:11:56;;;;;;;12.20;6.10;;;;;;;;;;5085324;28;20023;-47
2023/07/09 01:14:24;;;;;;;13.37;6.33;;;;;;;;;;5107089;28;20059;-47
2023/07/09 01:17:01;;;;;;;12.38;5.60;;;;;;;;;;5107583;28;20265;-51
2023/07/09 01:19:43;;;;;;;11.80;6.18;;;;;;;;;;5065447;28;20047;-54
2023/07/09 01:22:11;;;;;;;12.30;6.35;;;;;;;;;;5065239;28;20427;-51
2023/07/09 01:24:59;;;;;;;8.18;5.25;;;;;;;;;;5065638;28;20423;-48
2023/07/09 01:27:28;;;;;;;7.07;4.63;;;;;;;;;;5064937;28;20072;-50
2023/07/09 01:29:56;;;;;;;7.78;4.32;;;;;;;;;;5064870;28;20108;-54
2023/07/09 01:32:22;;;;;;;8.68;4.55;;;;;;;;;;5065009;28;20320;-51
2023/07/09 01:34:53;;;;;;;9.63;3.92;;;;;;;;;;5048481;28;20037;-47
2023/07/09 01:37:22;;;;;;;9.88;4.07;;;;;;;;;;5065128;28;20033;-47
2023/07/09 01:39:49;;;;;;;9.68;4.88;;;;;;;;;;5064730;28;20048;-49
2023/07/09 01:42:17;;;;;;;9.00;4.75;;;;;;;;;;5064699;28;20028;-49
2023/07/09 01:44:45;;;;;;;10.82;5.32;;;;;;;;;;5065054;28;20084;-53
2023/07/09 01:47:12;;;;;;;12.70;5.47;;;;;;;;;;5047869;28;20024;-48
2023/07/09 01:49:39;;;;;;;10.45;5.78;;;;;;;;;;5067351;28;20043;-49
2023/07/09 01:52:08;;;;;;;12.10;5.47;;;;;;;;;;5106243;28;20051;-48
2023/07/09 01:54:38;;;;;;;12.75;4.63;;;;;;;;;;5106428;28;20338;-46
2023/07/09 01:57:33;;;;;;;10.00;4.60;;;;;;;;;;5106940;28;20296;-49
2023/07/09 02:00:03;;;;;;;12.43;5.63;;;;;;;;;;5085940;28;20040;-47
2023/07/09 02:02:32;;;;;;;11.05;5.43;;;;;;;;;;5106821;28;20200;-47
2023/07/09 02:05:00;;;;;;;11.88;5.32;;;;;;;;;;5106567;28;20032;-48
2023/07/09 02:07:27;;;;;;;11.38;6.07;;;;;;;;;;5106643;28;20112;-47
2023/07/09 02:09:54;;;;;;;10.52;5.20;;;;;;;;;;5106138;28;20024;-51
2023/07/09 02:12:20;;;;;;;11.40;5.35;;;;;;;;;;5106380;28;20255;-47
2023/07/09 02:14:47;;;;;;;11.55;5.45;;;;;;;;;;5106115;28;20066;-52
2023/07/09 02:17:15;;;;;;;9.85;5.30;;;;;;;;;;5106285;28;20083;-52
2023/07/09 02:19:42;;;;;;;10.70;5.40;;;;;;;;;;5106096;28;20110;-48
2023/07/09 02:22:09;;;;;;;8.05;5.22;;;;;;;;;;5105898;28;20036;-51
2023/07/09 02:24:36;;;;;;;11.32;5.30;;;;;;;;;;5105892;28;20019;-53
2023/07/09 02:27:04;;;;;;;11.23;5.43;;;;;;;;;;5106029;28;20118;-52
2023/07/09 02:29:32;;;;;;;11.27;4.90;;;;;;;;;;5087233;28;20169;-55
2023/07/09 02:31:59;;;;;;;9.27;5.25;;;;;;;;;;5106289;28;20020;-51
2023/07/09 02:34:26;;;;;;;11.00;7.07;;;;;;;;;;5105799;28;20032;-55
2023/07/09 02:36:54;;;;;;;15.18;8.85;;;;;;;;;;5105489;28;20287;-51
2023/07/09 02:39:21;;;;;;;15.90;11.02;;;;;;;;;;5105985;28;20081;-54
2023/07/09 02:41:47;;;;;;;19.02;12.65;;;;;;;;;;5105779;28;20035;-50
2023/07/09 02:44:14;;;;;;;15.85;12.40;;;;;;;;;;5106064;28;20032;-50
2023/07/09 02:46:41;;;;;;;16.02;10.48;;;;;;;;;;5087125;28;20224;-49
2023/07/09 02:49:10;;;;;;;16.95;10.50;;;;;;;;;;5105484;28;20279;-47
2023/07/09 02:51:37;;;;;;;13.88;8.43;;;;;;;;;;5106190;28;20035;-52
2023/07/09 02:54:05;;;;;;;12.23;6.97;;;;;;;;;;5105608;28;20071;-54
2023/07/09 02:56:31;;;;;;;14.73;7.40;;;;;;;;;;5071100;28;20036;-55
2023/07/09 02:58:58;;;;;;;12.48;6.18;;;;;;;;;;5086917;28;20366;-48
2023/07/09 03:01:27;;;;;;;11.40;6.43;;;;;;;;;;5105172;28;20032;-51
2023/07/09 03:03:54;;;;;;;13.65;6.20;;;;;;;;;;5105305;28;20069;-51
2023/07/09 03:06:24;;;;;;;12.32;6.47;;;;;;;;;;5105720;28;20107;-49
2023/07/09 03:08:52;;;;;;;11.30;6.53;;;;;;;;;;5105327;28;20047;-50
2023/07/09 03:11:22;;;;;;;10.00;6.10;;;;;;;;;;5104738;28;20323;-48
2023/07/09 03:13:49;;;;;;;10.85;5.75;;;;;;;;;;5104975;28;20077;-48
2023/07/09 03:16:15;;;;;;;9.80;5.97;;;;;;;;;;5105498;28;20016;-51
2023/07/09 03:18:42;;;;;;;9.45;5.13;;;;;;;;;;5105035;28;20024;-47
2023/07/09 03:21:09;;;;;;;10.25;5.18;;;;;;;;;;5105474;28;20047;-46
2023/07/09 03:23:35;;;;;;;14.48;6.10;;;;;;;;;;5105237;28;20043;-51
2023/07/09 03:26:02;;;;;;;11.48;5.50;;;;;;;;;;5086332;28;20123;-49
2023/07/09 03:28:31;;;;;;;13.73;6.43;;;;;;;;;;5104604;28;20042;-49
2023/07/09 03:30:58;;;;;;;10.95;6.50;;;;;;;;;;5104787;28;20102;-47
2023/07/09 03:33:25;;;;;;;12.40;6.65;;;;;;;;;;5104946;28;20175;-46
2023/07/09 03:35:54;;;;;;;16.52;7.10;;;;;;;;;;5104769;28;20052;-53
2023/07/09 03:38:20;;;;;;;15.27;6.75;;;;;;;;;;5104697;28;20020;-49
2023/07/09 03:40:50;;;;;;;15.25;7.07;;;;;;;;;;5104860;28;20220;-49
2023/07/09 03:43:17;;;;;;;12.18;6.28;;;;;;;;;;5104522;28;20095;-47
2023/07/09 03:45:45;;;;;;;12.10;6.95;;;;;;;;;;5104944;28;20031;-53
2023/07/09 03:48:11;;;;;;;14.45;7.20;;;;;;;;;;5104306;28;20032;-46
2023/07/09 03:50:38;;;;;;;13.80;7.13;;;;;;;;;;5104293;28;20035;-49
2023/07/09 03:53:05;;;;;;;14.38;6.40;;;;;;;;;;5104619;28;20012;-53
2023/07/09 03:55:32;;;;;;;10.48;6.20;;;;;;;;;;5104819;28;20032;-50
2023/07/09 03:57:59;;;;;;;15.25;6.32;;;;;;;;;;5104722;28;20100;-53
2023/07/09 04:00:25;;;;;;;12.43;5.90;;;;;;;;;;5104842;28;20030;-48
2023/07/09 04:02:53;;;;;;;10.85;6.40;;;;;;;;;;5104527;28;20042;-47
2023/07/09 04:05:19;;;;;;;11.50;6.78;;;;;;;;;;5104596;28;20117;-50
2023/07/09 04:07:46;;;;;;;13.85;6.30;;;;;;;;;;5104529;28;20040;-50
2023/07/09 04:10:13;;;;;;;10.40;5.68;;;;;;;;;;5104533;28;20047;-50
2023/07/09 04:12:39;;;;;;;16.20;6.25;;;;;;;;;;5104315;28;20308;-47
2023/07/09 04:15:06;;;;;;;11.55;5.80;;;;;;;;;;5104240;28;20065;-47
2023/07/09 04:17:33;;;;;;;10.15;5.80;;;;;;;;;;5104227;28;20092;-50
2023/07/09 04:20:00;;;;;;;13.05;6.43;;;;;;;;;;5104322;28;20314;-50
2023/07/09 04:22:26;;;;;;;13.50;6.97;;;;;;;;;;5103982;28;20039;-53
2023/07/09 04:24:53;;;;;;;12.18;6.22;;;;;;;;;;5103736;28;20099;-49
2023/07/09 04:27:20;;;;;;;15.70;5.93;;;;;;;;;;5104145;28;20024;-52
2023/07/09 04:29:48;;;;;;;10.40;5.18;;;;;;;;;;5086314;28;20117;-52
2023/07/09 04:32:15;;;;;;;14.50;6.68;;;;;;;;;;5104240;28;20220;-47
2023/07/09 04:34:42;;;;;;;13.20;4.80;;;;;;;;;;5104166;28;20035;-48
2023/07/09 04:37:11;;;;;;;14.75;4.20;;;;;;;;;;5104024;28;20259;-55
2023/07/09 04:39:38;;;;;;;10.75;3.63;;;;;;;;;;5086381;28;20192;-52
2023/07/09 04:42:06;;;;;;;11.23;3.67;;;;;;;;;;5103774;28;20240;-50
2023/07/09 04:44:33;;;;;;;7.53;3.53;;;;;;;;;;5103732;28;20030;-53
2023/07/09 04:46:59;;;;;;;9.48;3.00;;;;;;;;;;5103816;28;20043;-51
2023/07/09 04:49:26;;;;;;;9.27;2.90;;;;;;;;;;5107835;28;20052;-53
2023/07/09 04:51:53;;;;;;;13.20;3.47;;;;;;;;;;5108682;28;20024;-51
2023/07/09 04:54:22;;;;;;;9.10;2.53;;;;;;;;;;5107738;28;20058;-48
2023/07/09 04:56:49;;;;;;;13.80;2.88;;;;;;;;;;5108158;28;20047;-50
2023/07/09 04:59:15;;;;;;;10.05;3.25;;;;;;;;;;5108608;28;20020;-53
2023/07/09 05:01:42;;;;;;;11.93;3.42;;;;;;;;;;5108328;28;20028;-48
2023/07/09 05:04:09;;;;;;;8.50;3.13;;;;;;;;;;5108276;28;20024;-52
2023/07/09 05:06:35;;;;;;;10.77;3.30;;;;;;;;;;5108806;28;20082;-48
2023/07/09 05:09:02;;;;;;;8.52;2.97;;;;;;;;;;5108261;28;20036;-50
2023/07/09 05:11:29;;;;;;;8.68;2.75;;;;;;;;;;5108193;28;20023;-50
2023/07/09 05:13:55;;;;;;;6.22;2.60;;;;;;;;;;5107782;28;20046;-47
2023/07/09 05:16:22;;;;;;;8.48;2.55;;;;;;;;;;5107930;28;20032;-52
2023/07/09 05:18:49;;;;;;;10.70;3.20;;;;;;;;;;5107762;28;20237;-51
2023/07/09 05:21:15;;;;;;;11.02;2.88;;;;;;;;;;5108485;28;20027;-49
2023/07/09 05:23:42;;;;;;;10.18;3.17;;;;;;;;;;5108188;28;20035;-53
2023/07/09 05:26:09;;;;;;;8.70;3.28;;;;;;;;;;5107804;28;20052;-45
2023/07/09 05:28:36;;;;;;;7.85;2.53;;;;;;;;;;5107916;28;20019;-49
2023/07/09 05:31:03;;;;;;;14.25;3.00;;;;;;;;;;5108228;28;20036;-47
2023/07/09 05:33:29;;;;;;;10.50;2.97;;;;;;;;;;5107790;28;20023;-50
2023/07/09 05:35:56;;;;;;;9.13;2.88;;;;;;;;;;5108201;28;20118;-47
2023/07/09 05:38:23;;;;;;;6.35;2.53;;;;;;;;;;5107936;28;20278;-47
2023/07/09 05:40:49;;;;;;;8.80;2.28;;;;;;;;;;5107977;28;20028;-51
2023/07/09 05:43:17;;;;;;;8.82;2.17;;;;;;;;;;5107566;28;20016;-47
2023/07/09 05:45:43;;;;;;;9.85;2.42;;;;;;;;;;5108000;28;20046;-50
2023/07/09 05:48:10;;;;;;;7.95;2.47;;;;;;;;;;5107320;28;20028;-46
2023/07/09 05:50:38;;;;;;;9.50;2.25;;;;;;;;;;5107899;28;20040;-49
2023/07/09 05:53:06;;;;;;;8.90;2.33;;;;;;;;;;5107490;28;20020;-50
2023/07/09 05:55:32;;;;;;;11.48;2.03;;;;;;;;;;5107563;28;20024;-47
2023/07/09 05:57:59;;;;;;;7.45;2.28;;;;;;;;;;5107246;28;20023;-47
2023/07/09 06:00:26;;;;;;;5.53;1.95;;;;;;;;;;5107058;28;20423;-51
2023/07/09 06:02:52;;;;;;;8.43;2.15;;;;;;;;;;5107106;28;20095;-50
2023/07/09 06:05:20;;;;;;;7.72;2.03;;;;;;;;;;5107381;28;20038;-48
2023/07/09 06:07:47;;;;;;;7.82;2.05;;;;;;;;;;5107143;28;20028;-53
2023/07/09 06:10:14;;;;;;;7.53;2.20;;;;;;;;;;5107319;28;20032;-56
2023/07/09 06:12:41;;;;;;;7.05;1.55;;;;;;;;;;5106869;28;20066;-46
2023/07/09 06:15:08;;;;;;;10.23;1.60;;;;;;;;;;5106836;28;20036;-49
2023/07/09 06:17:35;;;;;;;6.22;1.83;;;;;;;;;;5106307;28;20334;-53
2023/07/09 06:20:02;;;;;;;7.63;1.63;;;;;;;;;;5106508;28;20065;-47
2023/07/09 06:22:28;;;;;;;5.65;1.77;;;;;;;;;;5106792;28;20024;-47
2023/07/09 06:24:55;;;;;;;8.63;1.73;;;;;;;;;;5106441;28;20036;-49
2023/07/09 06:27:22;;;;;;;5.53;1.52;;;;;;;;;;5106559;28;20012;-45
2023/07/09 06:29:48;;;;;;;8.68;1.95;;;;;;;;;;5106524;28;20032;-47
2023/07/09 06:32:15;;;;;;;6.93;1.50;;;;;;;;;;5088591;28;20020;-45
2023/07/09 06:34:41;;;;;;;4.90;1.48;;;;;;;;;;5106553;28;20047;-45
2023/07/09 06:37:08;;;;;;;7.10;1.67;;;;;;;;;;5106529;28;20054;-51
2023/07/09 06:39:35;;;;;;;5.22;1.40;;;;;;;;;;5106622;28;20098;-46
2023/07/09 06:42:01;;;;;;;5.03;1.58;;;;;;;;;;5106269;28;20016;-49
2023/07/09 06:44:28;;;;;;;8.65;1.70;;;;;;;;;;5106241;28;20200;-52
2023/07/09 06:46:55;;;;;;;8.25;1.48;;;;;;;;;;5106265;28;20024;-54
2023/07/09 06:49:21;;;;;;;6.03;1.65;;;;;;;;;;5106235;28;20020;-47
2023/07/09 06:51:48;;;;;;;7.38;1.70;;;;;;;;;;5106503;28;20028;-54
2023/07/09 06:54:15;;;;;;;7.05;1.38;;;;;;;;;;5105778;28;20073;-49
2023/07/09 06:56:42;;;;;;;6.30;1.33;;;;;;;;;;5106126;28;20016;-51
2023/07/09 06:59:09;;;;;;;7.90;1.58;;;;;;;;;;5106013;28;20101;-55
2023/07/09 07:01:35;;;;;;;9.23;1.60;;;;;;;;;;5106647;28;20057;-49
2023/07/09 07:04:02;;;;;;;16.48;2.10;;;;;;;;;;5106200;28;20043;-44
2023/07/09 07:06:30;;;;;;;6.88;1.88;;;;;;;;;;5112382;28;20035;-47
2023/07/09 07:08:57;;;;;;;8.85;1.60;;;;;;;;;;5119411;28;20023;-45
2023/07/09 07:11:29;;;;;;;9.07;1.55;;;;;;;;;;5123051;28;20191;-56
2023/07/09 07:13:56;;;;;;;;;;;;;;;;;;5090076;28;20036;-58
2023/07/09 07:16:22;;;;;;;7.55;1.70;;;;;;;;;;5102224;28;20092;-45
2023/07/09 07:18:49;;;;;;;7.30;1.92;;;;;;;;;;5104829;28;20020;-49
2023/07/09 07:21:16;;;;;;;7.05;1.55;;;;;;;;;;5105270;28;20035;-44
2023/07/09 07:23:43;;;;;;;8.55;1.67;;;;;;;;;;5104940;28;20243;-46
2023/07/09 07:26:09;;;;;;;9.35;1.73;;;;;;;;;;5104694;28;20145;-46
2023/07/09 07:28:37;;;;;;;8.65;2.05;;;;;;;;;;5104447;28;20080;-41
2023/07/09 07:31:05;;;;;;;8.45;1.50;;;;;;;;;;5105054;28;20035;-42
2023/07/09 07:33:33;;;;;;;5.20;1.10;;;;;;;;;;5104482;28;20008;-46
2023/07/09 07:36:00;;;;;;;10.60;1.55;;;;;;;;;;5105153;28;20316;-47
2023/07/09 07:38:26;;;;;;;10.02;1.65;;;;;;;;;;5104584;28;20224;-46
2023/07/09 07:40:53;;;;;;;7.15;1.42;;;;;;;;;;5104705;28;20070;-44
2023/07/09 07:43:20;;;;;;;9.48;1.25;;;;;;;;;;5104569;28;20086;-44
2023/07/09 07:45:48;;;;;;;9.02;1.67;;;;;;;;;;5104440;28;20032;-46
2023/07/09 07:48:15;;;;;;;8.80;1.45;;;;;;;;;;5104266;28;20020;-52
2023/07/09 07:50:42;;;;;;;6.63;1.70;;;;;;;;;;5104624;28;20028;-44
2023/07/09 07:53:09;;;;;;;10.43;1.55;;;;;;;;;;5104406;28;20078;-45
2023/07/09 07:55:36;;;;;;;4.32;1.00;;;;;;;;;;5104388;28;20020;-45
2023/07/09 07:58:03;;;;;;;8.55;1.48;;;;;;;;;;5104249;28;20023;-45
2023/07/09 08:00:30;;;;;;;6.45;1.30;;;;;;;;;;5104435;28;20036;-45
2023/07/09 08:02:58;;;;;;;5.97;1.40;;;;;;;;;;5104130;28;20020;-45
2023/07/09 08:05:25;;;;;;;8.85;1.40;;;;;;;;;;5104313;28;20043;-46
2023/07/09 08:07:51;;;;;;;6.05;1.20;;;;;;;;;;5084412;28;20036;-46
2023/07/09 08:10:18;;;;;;;5.95;1.50;;;;;;;;;;5083977;28;20047;-46
2023/07/09 08:12:45;;;;;;;8.98;1.45;;;;;;;;;;5083848;28;20235;-47
2023/07/09 08:15:11;;;;;;;9.35;1.67;;;;;;;;;;5096595;28;20028;-43
2023/07/09 08:17:39;;;;;;;8.82;1.58;;;;;;;;;;5103909;28;20008;-46
2023/07/09 08:20:06;;;;;;;8.25;1.65;;;;;;;;;;5104042;28;20073;-41
2023/07/09 08:22:33;;;;;;;9.80;1.70;;;;;;;;;;5107952;28;20054;-44
2023/07/09 08:24:59;;;;;;;6.55;1.38;;;;;;;;;;5107653;28;20056;-48
2023/07/09 08:27:26;;;;;;;9.55;1.75;;;;;;;;;;5090399;28;20048;-53
2023/07/09 08:29:53;;;;;;;11.70;1.80;;;;;;;;;;5090379;28;20070;-43
2023/07/09 08:32:19;;;;;;;7.15;1.30;;;;;;;;;;5090302;28;20017;-44
2023/07/09 08:34:46;;;;;;;10.55;1.52;;;;;;;;;;5090571;28;20040;-45
2023/07/09 08:37:12;;;;;;;8.40;1.38;;;;;;;;;;5090411;28;20197;-47
2023/07/09 08:39:39;;;;;;;5.68;1.38;;;;;;;;;;5090212;28;20350;-53
2023/07/09 08:42:08;;;;;;;9.82;1.55;;;;;;;;;;5090244;28;20074;-44
2023/07/09 08:44:35;;;;;;;6.57;1.40;;;;;;;;;;5090208;28;20032;-46
2023/07/09 08:47:04;;;;;;;7.38;1.50;;;;;;;;;;5090540;28;20021;-44
2023/07/09 08:49:37;;;;;;;7.97;1.63;;;;;;;;;;5090251;28;20259;-43
2023/07/09 08:52:06;;;;;;;5.43;1.25;;;;;;;;;;5090261;28;20034;-49
2023/07/09 08:54:37;;;;;;;6.22;1.02;;;;;;;;;;5090102;28;20049;-48
2023/07/09 08:57:20;;;;;;;9.98;1.33;;;;;;;;;;5090326;28;20012;-46
2023/07/09 08:59:48;;;;;;;8.13;1.13;;;;;;;;;;5090083;28;20041;-56
2023/07/09 09:02:28;;;;;;;5.45;1.20;;;;;;;;;;5090059;28;20016;-53
2023/07/09 09:04:55;;;;;;;5.10;1.08;;;;;;;;;;5090296;28;20039;-49
2023/07/09 09:07:37;;;;;;;7.57;1.42;;;;;;;;;;5089952;28;20016;-42
2023/07/09 09:10:03;;;;;;;;;;;;;;;;;;5090461;28;20041;-46
2023/07/09 09:12:43;;;;;;;12.90;1.50;;;;;;;;;;5089851;28;19901;-48
2023/07/09 09:15:18;;;;;;;9.25;1.55;;;;;;;;;;5089873;28;20032;-44
2023/07/09 09:17:45;;;;;;;7.00;1.25;;;;;;;;;;5090061;28;20020;-41
2023/07/09 09:20:26;;;;;;;7.38;1.27;;;;;;;;;;5090066;28;20025;-45
2023/07/09 09:23:09;;;;;;;5.05;1.20;;;;;;;;;;5089768;28;20021;-48
2023/07/09 09:25:38;;;;;;;5.22;1.27;;;;;;;;;;5089799;28;20062;-43
2023/07/09 09:28:05;;;;;;;5.07;1.05;;;;;;;;;;5089808;28;20084;-42
2023/07/09 09:30:31;;;;;;;5.30;1.55;;;;;;;;;;5090115;28;20062;-50
2023/07/09 09:33:08;;;;;;;4.65;1.10;;;;;;;;;;5088994;28;20032;-44
2023/07/09 09:35:36;;;;;;;5.85;1.45;;;;;;;;;;5086764;28;20031;-47
2023/07/09 09:38:03;;;;;;;4.57;1.08;;;;;;;;;;5086846;28;20032;-47
2023/07/09 09:40:34;;;;;;;8.57;1.40;;;;;;;;;;5086829;28;20035;-45
2023/07/09 09:43:02;;;;;;;5.78;1.20;;;;;;;;;;5086394;28;20027;-45
2023/07/09 09:45:33;;;;;;;4.80;0.80;;;;;;;;;;5086752;28;20036;-44
2023/07/09 09:48:01;;;;;;;4.43;1.05;;;;;;;;;;5086314;28;20027;-51
2023/07/09 09:50:29;;;;;;;7.05;1.20;;;;;;;;;;5086440;28;20212;-47
2023/07/09 09:52:55;;;;;;;5.18;1.10;;;;;;;;;;5086436;28;20028;-48
2023/07/09 09:55:28;;;;;;;4.78;1.00;;;;;;;;;;5086511;28;20087;-45
2023/07/09 09:57:56;;;;;;;6.07;0.82;;;;;;;;;;5086379;28;20096;-46
2023/07/09 10:00:28;;;;;;;5.72;0.95;;;;;;;;;;5086303;28;20028;-52
2023/07/09 10:02:59;;;;;;;5.72;0.85;;;;;;;;;;5086087;28;20036;-51
2023/07/09 10:05:40;;;;;;;9.63;1.50;;;;;;;;;;5086349;28;20032;-49
2023/07/09 10:08:13;;;;;;;7.32;1.10;;;;;;;;;;5085789;28;20024;-48
2023/07/09 10:10:40;;;;;;;4.10;0.85;;;;;;;;;;5086308;28;20035;-53
2023/07/09 10:13:22;;;;;;;5.95;1.00;;;;;;;;;;5085943;28;20078;-52
2023/07/09 10:16:04;;;;;;;6.10;1.02;;;;;;;;;;5086130;28;20075;-51
2023/07/09 10:18:40;;;;;;;9.50;1.00;;;;;;;;;;5085996;28;20020;-48
2023/07/09 10:21:11;;;;;;;7.22;1.25;;;;;;;;;;5086268;28;20097;-49
2023/07/09 10:24:03;;;;;;;8.45;1.17;;;;;;;;;;5085779;28;20062;-50
2023/07/09 10:26:41;;;;;;;8.43;1.00;;;;;;;;;;5090108;28;20048;-50
2023/07/09 10:29:16;;;;;;;9.40;1.25;;;;;;;;;;5106012;28;20084;-49
2023/07/09 10:32:01;;;;;;;8.32;1.17;;;;;;;;;;5105908;28;20032;-48
2023/07/09 10:34:33;;;;;;;7.00;1.15;;;;;;;;;;5105505;28;20027;-46
2023/07/09 10:37:24;;;;;;;4.45;1.25;;;;;;;;;;5105847;28;20032;-51
2023/07/09 10:39:56;;;;;;;7.82;1.38;;;;;;;;;;5105688;28;20023;-48
2023/07/09 10:42:28;;;;;;;5.95;1.30;;;;;;;;;;5105712;28;20032;-50
2023/07/09 10:45:14;;;;;;;10.43;1.55;;;;;;;;;;5104973;28;20196;-48
2023/07/09 10:48:10;;;;;;;7.30;1.45;;;;;;;;;;5105460;28;20027;-50
2023/07/09 10:50:38;;;;;;;8.23;1.90;;;;;;;;;;5016952;28;20133;-49
2023/07/09 10:53:12;;;;;;;6.30;2.20;;;;;;;;;;5104815;28;20047;-51
2023/07/09 10:55:41;;;;;;;7.25;2.13;;;;;;;;;;5105388;28;20047;-50
2023/07/09 10:58:26;;;;;;;8.02;1.90;;;;;;;;;;5105196;28;20051;-46
2023/07/09 11:00:53;;;;;;;8.18;1.85;;;;;;;;;;5105101;28;20070;-48
2023/07/09 11:03:19;;;;;;;7.60;2.00;;;;;;;;;;5103847;28;20076;-49
2023/07/09 11:05:46;;;;;;;9.07;2.10;;;;;;;;;;5105354;28;20028;-47
2023/07/09 11:08:14;;;;;;;11.45;2.03;;;;;;;;;;5105084;28;20022;-45
2023/07/09 11:11:02;;;;;;;5.25;1.95;;;;;;;;;;5105569;28;20028;-47
2023/07/09 11:13:39;;;;;;;8.68;1.77;;;;;;;;;;5104876;28;20018;-54
2023/07/09 11:16:07;;;;;;;9.32;1.80;;;;;;;;;;5105317;28;20078;-47
2023/07/09 11:18:35;;;;;;;9.10;1.67;;;;;;;;;;5099247;28;20019;-49
2023/07/09 11:21:01;;;;;;;6.40;1.65;;;;;;;;;;5093929;28;20032;-50
2023/07/09 11:23:38;;;;;;;7.25;2.08;;;;;;;;;;5084791;28;20031;-51
2023/07/09 11:26:15;;;;;;;8.98;1.83;;;;;;;;;;5084365;28;20068;-45
2023/07/09 11:28:47;;;;;;;6.47;2.00;;;;;;;;;;5084567;28;20096;-49
2023/07/09 11:31:36;;;;;;;11.25;2.17;;;;;;;;;;5092949;28;20042;-47
2023/07/09 11:34:02;;;;;;;6.45;2.22;;;;;;;;;;5104447;28;20224;-46
2023/07/09 11:36:30;;;;;;;11.05;2.00;;;;;;;;;;5104733;28;20020;-49
2023/07/09 11:38:57;;;;;;;13.70;2.20;;;;;;;;;;5104288;28;20047;-47
2023/07/09 11:41:28;;;;;;;8.68;2.25;;;;;;;;;;5084278;28;20038;-45
2023/07/09 11:44:25;;;;;;;5.47;1.97;;;;;;;;;;5094438;28;20039;-50
2023/07/09 11:46:58;;;;;;;6.50;2.00;;;;;;;;;;5064888;28;20040;-46
2023/07/09 11:49:28;;;;;;;6.78;1.73;;;;;;;;;;5102856;28;20027;-46
2023/07/09 11:51:58;;;;;;;6.22;1.85;;;;;;;;;;5095904;28;20027;-49
2023/07/09 11:54:25;;;;;;;6.03;1.80;;;;;;;;;;5102241;28;20293;-44
2023/07/09 11:56:59;;;;;;;4.70;1.73;;;;;;;;;;5097488;28;20059;-48
2023/07/09 11:59:25;;;;;;;6.40;1.83;;;;;;;;;;5103229;28;20117;-47
2023/07/09 12:01:55;;;;;;;7.25;2.28;;;;;;;;;;5100347;28;20047;-48
2023/07/09 12:04:35;;;;;;;7.18;1.88;;;;;;;;;;5102177;28;20032;-49
2023/07/09 12:07:03;;;;;;;4.85;1.45;;;;;;;;;;5103769;28;20066;-51
2023/07/09 12:09:43;;;;;;;6.13;1.73;;;;;;;;;;5103225;28;20103;-54
2023/07/09 12:12:20;;;;;;;6.28;1.48;;;;;;;;;;5103224;28;20024;-50
2023/07/09 12:14:47;;;;;;;7.13;1.50;;;;;;;;;;5104375;28;20041;-46
2023/07/09 12:17:14;;;;;;;5.40;1.30;;;;;;;;;;5104201;28;20032;-50
2023/07/09 12:19:40;;;;;;;8.05;1.67;;;;;;;;;;5104077;28;20051;-46
2023/07/09 12:22:11;;;;;;;8.73;1.48;;;;;;;;;;5104169;28;20028;-47
2023/07/09 12:24:40;;;;;;;3.42;1.13;;;;;;;;;;5104139;28;20038;-47
2023/07/09 12:27:18;;;;;;;3.90;1.38;;;;;;;;;;5103921;28;20051;-52
2023/07/09 12:29:46;;;;;;;3.20;1.25;;;;;;;;;;5103877;28;20036;-51
2023/07/09 12:32:14;;;;;;;4.70;1.30;;;;;;;;;;5103462;28;20394;-46
2023/07/09 12:34:41;;;;;;;4.65;1.38;;;;;;;;;;5104011;28;20028;-50
2023/07/09 12:37:15;;;;;;;4.35;1.15;;;;;;;;;;5103924;28;20316;-47
2023/07/09 12:39:42;;;;;;;5.05;1.17;;;;;;;;;;5103884;28;20109;-47
2023/07/09 12:42:15;;;;;;;4.35;1.50;;;;;;;;;;5104077;28;20040;-45
2023/07/09 12:44:41;;;;;;;3.70;1.40;;;;;;;;;;5104208;28;20078;-46
2023/07/09 12:47:13;;;;;;;5.45;1.50;;;;;;;;;;5103747;28;20012;-46
2023/07/09 12:49:41;;;;;;;8.27;1.52;;;;;;;;;;5103716;28;20043;-46
2023/07/09 12:52:24;;;;;;;2.72;1.20;;;;;;;;;;5103824;28;20044;-52
2023/07/09 12:55:00;;;;;;;3.80;1.40;;;;;;;;;;5103994;28;20320;-43
2023/07/09 12:57:27;;;;;;;3.28;1.35;;;;;;;;;;5103811;28;20028;-45
2023/07/09 12:59:56;;;;;;;5.15;1.65;;;;;;;;;;5103629;28;20251;-47
2023/07/09 13:02:24;;;;;;;5.43;1.52;;;;;;;;;;5103674;28;20030;-57
2023/07/09 13:04:51;;;;;;;8.63;1.55;;;;;;;;;;5103885;28;20083;-45
2023/07/09 13:07:24;;;;;;;3.95;1.40;;;;;;;;;;5085577;28;20028;-46
2023/07/09 13:09:53;;;;;;;4.38;1.70;;;;;;;;;;5106488;28;20039;-45
2023/07/09 13:12:19;;;;;;;4.15;1.60;;;;;;;;;;5107534;28;20316;-47
2023/07/09 13:14:56;;;;;;;4.35;1.50;;;;;;;;;;5107753;28;20055;-44
2023/07/09 13:17:23;;;;;;;2.45;1.30;;;;;;;;;;5107773;28;20065;-50
2023/07/09 13:19:50;;;;;;;4.93;1.20;;;;;;;;;;5107222;28;20042;-45
2023/07/09 13:22:17;;;;;;;4.95;1.60;;;;;;;;;;5107302;28;20074;-51
2023/07/09 13:24:46;;;;;;;3.75;1.30;;;;;;;;;;5107102;28;20071;-44
2023/07/09 13:27:13;;;;;;;5.72;1.27;;;;;;;;;;5107503;28;20035;-49
2023/07/09 13:29:41;;;;;;;3.55;1.17;;;;;;;;;;5107052;28;20088;-48
2023/07/09 13:32:10;;;;;;;2.20;1.10;;;;;;;;;;5107082;28;20043;-44
2023/07/09 13:34:38;;;;;;;5.93;1.35;;;;;;;;;;5107393;28;20035;-52
2023/07/09 13:37:05;;;;;;;3.35;0.95;;;;;;;;;;5107204;28;20070;-45
2023/07/09 13:39:32;;;;;;;3.95;1.00;;;;;;;;;;5106922;28;20040;-45
2023/07/09 13:41:59;;;;;;;3.70;1.00;;;;;;;;;;5106796;28;20036;-47
2023/07/09 13:44:27;;;;;;;2.90;1.20;;;;;;;;;;5106956;28;20048;-48
2023/07/09 13:46:54;;;;;;;4.20;1.23;;;;;;;;;;5106837;28;20032;-46
2023/07/09 13:49:22;;;;;;;3.47;1.00;;;;;;;;;;5106449;28;20267;-45
2023/07/09 13:51:50;;;;;;;2.72;1.10;;;;;;;;;;5106716;28;20212;-52
2023/07/09 13:54:19;;;;;;;4.70;1.30;;;;;;;;;;5105034;28;20054;-49
2023/07/09 13:56:46;;;;;;;5.20;1.20;;;;;;;;;;5097552;28;20078;-44
2023/07/09 13:59:18;;;;;;;3.00;0.98;;;;;;;;;;5086429;28;20028;-49
2023/07/09 14:01:45;;;;;;;2.05;0.70;;;;;;;;;;5090990;28;20036;-50
2023/07/09 14:04:13;;;;;;;1.33;0.80;;;;;;;;;;5097042;28;20032;-52
2023/07/09 14:06:40;;;;;;;4.22;0.73;;;;;;;;;;5095038;28;20079;-43
2023/07/09 14:09:06;;;;;;;1.30;0.52;;;;;;;;;;5102197;28;20038;-45
2023/07/09 14:11:33;;;;;;;1.27;0.60;;;;;;;;;;5106995;28;20052;-44
2023/07/09 14:14:00;;;;;;;1.23;0.60;;;;;;;;;;5106214;28;20021;-43
2023/07/09 14:16:27;;;;;;;2.28;0.73;;;;;;;;;;5106076;28;20035;-48
2023/07/09 14:18:53;;;;;;;1.95;0.50;;;;;;;;;;5088048;28;20034;-51
2023/07/09 14:21:25;;;;;;;1.80;0.60;;;;;;;;;;5106485;28;20090;-46
2023/07/09 14:23:51;;;;;;;0.95;0.50;;;;;;;;;;5105999;28;20358;-47
2023/07/09 14:26:18;;;;;;;1.15;0.70;;;;;;;;;;5105967;28;20130;-48
2023/07/09 14:28:44;;;;;;;2.95;1.13;;;;;;;;;;5105885;28;20020;-50
2023/07/09 14:31:24;;;;;;;2.65;0.77;;;;;;;;;;5106352;28;20028;-42
2023/07/09 14:33:50;;;;;;;2.17;1.05;;;;;;;;;;5105811;28;20079;-47
2023/07/09 14:36:17;;;;;;;1.60;0.95;;;;;;;;;;5106225;28;20093;-47
2023/07/09 14:38:44;;;;;;;1.80;1.15;;;;;;;;;;5105612;28;20042;-43
2023/07/09 14:41:22;;;;;;;2.45;0.73;;;;;;;;;;5105275;28;20207;-45
2023/07/09 14:43:49;;;;;;;2.15;0.80;;;;;;;;;;5105610;28;20027;-46
2023/07/09 14:46:16;;;;;;;1.27;0.70;;;;;;;;;;5105855;28;20028;-47
2023/07/09 14:48:42;;;;;;;1.85;0.70;;;;;;;;;;5105349;28;20023;-46
2023/07/09 14:51:14;;;;;;;1.38;0.75;;;;;;;;;;5105985;28;20070;-53
2023/07/09 14:53:41;;;;;;;;;;;;;;;;;;5106041;28;20269;-53